AVA1407 SPJC-SKRG
Flight info
| Callsign | AVA1407 |
|---|---|
| Flight time | 2h 45m |
| Altitude | 33000 |
| Route | AMVEX UL305 TAP UL342 PLG DCT GIR/N0476F340 DCT NIRSO NIRSO4A |
| Aircraft | B722/M-SDFGHRWY/C |
Departure
| Time | 2026-04-20 22:27 |
|---|---|
| Airport | Jorge Chávez International Airport (SPJC) |
Arrival
| Time | 2026-04-21 01:13 |
|---|---|
| Airport | Jose Maria Córdova International Airport (SKRG) |
| Time | Latitude | Longitude | Altitude | Speed | Heading |
|---|---|---|---|---|---|
| 2026-04-20 22:12 | -12.02241 | -77.11017 | 132 ft | 0 kts | 81° |
| 2026-04-20 22:16 | -12.02244 | -77.11030 | 132 ft | 3 kts | 78° |
| 2026-04-20 22:16 | -12.02249 | -77.11050 | 132 ft | 3 kts | 69° |
| 2026-04-20 22:16 | -12.02258 | -77.11068 | 132 ft | 3 kts | 54° |
| 2026-04-20 22:16 | -12.02272 | -77.11081 | 132 ft | 3 kts | 26° |
| 2026-04-20 22:17 | -12.02286 | -77.11083 | 132 ft | 2 kts | 349° |
| 2026-04-20 22:17 | -12.02289 | -77.11082 | 132 ft | 0 kts | 346° |
| 2026-04-20 22:21 | -12.02286 | -77.11083 | 132 ft | 3 kts | 346° |
| 2026-04-20 22:21 | -12.02259 | -77.11098 | 132 ft | 5 kts | 317° |
| 2026-04-20 22:21 | -12.02238 | -77.11137 | 132 ft | 7 kts | 283° |
| 2026-04-20 22:21 | -12.02222 | -77.11194 | 132 ft | 9 kts | 303° |
| 2026-04-20 22:22 | -12.02165 | -77.11235 | 132 ft | 11 kts | 337° |
| 2026-04-20 22:22 | -12.02085 | -77.11269 | 132 ft | 13 kts | 337° |
| 2026-04-20 22:22 | -12.01995 | -77.11314 | 132 ft | 15 kts | 331° |
| 2026-04-20 22:22 | -12.01894 | -77.11366 | 132 ft | 17 kts | 336° |
| 2026-04-20 22:23 | -12.01787 | -77.11423 | 132 ft | 18 kts | 333° |
| 2026-04-20 22:23 | -12.01673 | -77.11478 | 132 ft | 19 kts | 335° |
| 2026-04-20 22:23 | -12.01553 | -77.11534 | 132 ft | 19 kts | 335° |
| 2026-04-20 22:23 | -12.01450 | -77.11584 | 132 ft | 11 kts | 333° |
| 2026-04-20 22:24 | -12.01381 | -77.11619 | 132 ft | 12 kts | 335° |
| 2026-04-20 22:24 | -12.01300 | -77.11659 | 132 ft | 14 kts | 334° |
| 2026-04-20 22:24 | -12.01208 | -77.11703 | 132 ft | 15 kts | 334° |
| 2026-04-20 22:24 | -12.01109 | -77.11752 | 132 ft | 16 kts | 334° |
| 2026-04-20 22:25 | -12.01005 | -77.11808 | 132 ft | 17 kts | 332° |
| 2026-04-20 22:25 | -12.00894 | -77.11861 | 132 ft | 18 kts | 336° |
| 2026-04-20 22:25 | -12.00776 | -77.11917 | 132 ft | 19 kts | 333° |
| 2026-04-20 22:25 | -12.00693 | -77.11988 | 132 ft | 14 kts | 288° |
| 2026-04-20 22:26 | -12.00710 | -77.12061 | 132 ft | 9 kts | 222° |
| 2026-04-20 22:26 | -12.00768 | -77.12085 | 127 ft | 10 kts | 187° |
| 2026-04-20 22:26 | -12.00838 | -77.12081 | 126 ft | 11 kts | 161° |
| 2026-04-20 22:27 | -12.01547 | -77.11739 | 131 ft | 129 kts | 154° |
| 2026-04-20 22:27 | -12.02523 | -77.11271 | 222 ft | 178 kts | 155° |
| 2026-04-20 22:27 | -12.03684 | -77.10730 | 883 ft | 185 kts | 157° |
| 2026-04-20 22:27 | -12.04901 | -77.10201 | 1554 ft | 199 kts | 160° |
| 2026-04-20 22:28 | -12.06269 | -77.09715 | 2109 ft | 212 kts | 164° |
| 2026-04-20 22:28 | -12.07686 | -77.09286 | 2952 ft | 220 kts | 166° |
| 2026-04-20 22:28 | -12.09277 | -77.08904 | 3393 ft | 252 kts | 168° |
| 2026-04-20 22:28 | -12.11053 | -77.08583 | 4170 ft | 259 kts | 171° |
| 2026-04-20 22:29 | -12.12883 | -77.08326 | 4697 ft | 277 kts | 173° |
| 2026-04-20 22:29 | -12.14893 | -77.08113 | 4896 ft | 299 kts | 175° |
| 2026-04-20 22:29 | -12.16913 | -77.07946 | 5383 ft | 275 kts | 179° |
| 2026-04-20 22:29 | -12.18799 | -77.08096 | 5378 ft | 276 kts | 191° |
| 2026-04-20 22:30 | -12.20611 | -77.08686 | 5491 ft | 274 kts | 205° |
| 2026-04-20 22:30 | -12.22263 | -77.09653 | 5893 ft | 275 kts | 218° |
| 2026-04-20 22:30 | -12.23638 | -77.11026 | 6250 ft | 278 kts | 229° |
| 2026-04-20 22:30 | -12.24618 | -77.12742 | 6468 ft | 280 kts | 244° |
| 2026-04-20 22:31 | -12.25401 | -77.14571 | 6802 ft | 282 kts | 247° |
| 2026-04-20 22:31 | -12.26134 | -77.16441 | 7186 ft | 285 kts | 251° |
| 2026-04-20 22:31 | -12.26796 | -77.18359 | 7599 ft | 287 kts | 248° |
| 2026-04-20 22:31 | -12.27514 | -77.20277 | 8044 ft | 289 kts | 255° |
| 2026-04-20 22:32 | -12.27649 | -77.22331 | 8632 ft | 292 kts | 279° |
| 2026-04-20 22:32 | -12.27047 | -77.24299 | 9515 ft | 294 kts | 297° |
| 2026-04-20 22:32 | -12.25914 | -77.26097 | 10105 ft | 308 kts | 308° |
| 2026-04-20 22:32 | -12.24506 | -77.27741 | 10523 ft | 306 kts | 316° |
| 2026-04-20 22:33 | -12.22834 | -77.29051 | 11017 ft | 301 kts | 330° |
| 2026-04-20 22:33 | -12.20910 | -77.29873 | 11680 ft | 301 kts | 347° |
| 2026-04-20 22:33 | -12.18819 | -77.29999 | 12318 ft | 305 kts | 7° |
| 2026-04-20 22:33 | -12.16814 | -77.29351 | 12818 ft | 311 kts | 28° |
| 2026-04-20 22:34 | -12.15087 | -77.27992 | 13281 ft | 315 kts | 40° |
| 2026-04-20 22:34 | -12.13468 | -77.26458 | 13668 ft | 319 kts | 43° |
| 2026-04-20 22:34 | -12.11903 | -77.24843 | 13962 ft | 321 kts | 45° |
| 2026-04-20 22:34 | -12.10502 | -77.23055 | 14247 ft | 322 kts | 51° |
| 2026-04-20 22:35 | -12.09002 | -77.21363 | 14481 ft | 322 kts | 38° |
| 2026-04-20 22:35 | -12.07245 | -77.19954 | 14629 ft | 322 kts | 43° |
| 2026-04-20 22:35 | -12.05829 | -77.18189 | 15131 ft | 321 kts | 53° |
| 2026-04-20 22:35 | -12.04567 | -77.16279 | 15621 ft | 325 kts | 55° |
| 2026-04-20 22:36 | -12.03349 | -77.14332 | 16124 ft | 327 kts | 56° |
| 2026-04-20 22:36 | -12.02140 | -77.12357 | 16670 ft | 327 kts | 57° |
| 2026-04-20 22:36 | -12.00623 | -77.10652 | 17214 ft | 325 kts | 31° |
| 2026-04-20 22:36 | -11.98534 | -77.09835 | 17852 ft | 321 kts | 8° |
| 2026-04-20 22:37 | -11.96309 | -77.09585 | 18471 ft | 323 kts | 4° |
| 2026-04-20 22:37 | -11.94093 | -77.09363 | 19023 ft | 326 kts | 7° |
| 2026-04-20 22:37 | -11.91857 | -77.08904 | 19573 ft | 329 kts | 14° |
| 2026-04-20 22:37 | -11.89648 | -77.08233 | 20157 ft | 331 kts | 15° |
| 2026-04-20 22:38 | -11.87421 | -77.07609 | 20734 ft | 333 kts | 13° |
| 2026-04-20 22:38 | -11.85149 | -77.07068 | 21224 ft | 338 kts | 12° |
| 2026-04-20 22:38 | -11.82842 | -77.06508 | 21692 ft | 343 kts | 13° |
| 2026-04-20 22:38 | -11.80511 | -77.05898 | 22167 ft | 347 kts | 14° |
| 2026-04-20 22:39 | -11.78157 | -77.05281 | 22640 ft | 352 kts | 13° |
| 2026-04-20 22:39 | -11.75791 | -77.04682 | 23138 ft | 356 kts | 12° |
| 2026-04-20 22:39 | -11.73378 | -77.04076 | 23644 ft | 359 kts | 13° |
| 2026-04-20 22:39 | -11.70940 | -77.03451 | 24048 ft | 362 kts | 13° |
| 2026-04-20 22:40 | -11.68485 | -77.02819 | 24467 ft | 365 kts | 13° |
| 2026-04-20 22:40 | -11.66008 | -77.02189 | 24863 ft | 369 kts | 13° |
| 2026-04-20 22:40 | -11.63500 | -77.01552 | 25181 ft | 373 kts | 13° |
| 2026-04-20 22:40 | -11.60973 | -77.00906 | 25504 ft | 375 kts | 13° |
| 2026-04-20 22:41 | -11.58438 | -77.00259 | 25849 ft | 377 kts | 13° |
| 2026-04-20 22:41 | -11.55879 | -76.99607 | 26176 ft | 379 kts | 13° |
| 2026-04-20 22:41 | -11.53307 | -76.98951 | 26508 ft | 381 kts | 13° |
| 2026-04-20 22:41 | -11.50719 | -76.98292 | 26809 ft | 384 kts | 13° |
| 2026-04-20 22:42 | -11.48112 | -76.97629 | 27023 ft | 390 kts | 13° |
| 2026-04-20 22:42 | -11.45461 | -76.96952 | 27067 ft | 405 kts | 13° |
| 2026-04-20 22:42 | -11.42731 | -76.96255 | 27543 ft | 404 kts | 13° |
| 2026-04-20 22:42 | -11.39997 | -76.95561 | 27934 ft | 407 kts | 13° |
| 2026-04-20 22:43 | -11.37229 | -76.94858 | 28332 ft | 410 kts | 13° |
| 2026-04-20 22:43 | -11.34447 | -76.94149 | 28745 ft | 413 kts | 13° |
| 2026-04-20 22:43 | -11.31647 | -76.93434 | 29206 ft | 416 kts | 13° |
| 2026-04-20 22:43 | -11.28826 | -76.92718 | 29636 ft | 419 kts | 13° |
| 2026-04-20 22:44 | -11.25983 | -76.91998 | 30042 ft | 422 kts | 13° |
| 2026-04-20 22:44 | -11.23160 | -76.91279 | 30388 ft | 424 kts | 13° |
| 2026-04-20 22:44 | -11.20287 | -76.90546 | 30757 ft | 426 kts | 13° |
| 2026-04-20 22:44 | -11.17410 | -76.89815 | 31135 ft | 427 kts | 13° |
| 2026-04-20 22:45 | -11.14492 | -76.89074 | 31513 ft | 427 kts | 13° |
| 2026-04-20 22:45 | -11.11600 | -76.88339 | 31853 ft | 429 kts | 13° |
| 2026-04-20 22:45 | -11.08732 | -76.87610 | 32196 ft | 431 kts | 13° |
| 2026-04-20 22:45 | -11.05824 | -76.86871 | 32588 ft | 431 kts | 13° |
| 2026-04-20 22:46 | -11.02900 | -76.86131 | 32865 ft | 435 kts | 13° |
| 2026-04-20 22:46 | -10.99953 | -76.85383 | 33169 ft | 438 kts | 13° |
| 2026-04-20 22:46 | -10.93969 | -76.83860 | 33165 ft | 444 kts | 13° |
| 2026-04-20 22:47 | -10.87974 | -76.82342 | 33154 ft | 444 kts | 13° |
| 2026-04-20 22:47 | -10.82018 | -76.80830 | 33176 ft | 443 kts | 13° |
| 2026-04-20 22:48 | -10.75939 | -76.79733 | 33178 ft | 448 kts | 4° |
| 2026-04-20 22:48 | -10.69562 | -76.79257 | 33202 ft | 469 kts | 6° |
| 2026-04-20 22:49 | -10.63034 | -76.78404 | 33197 ft | 473 kts | 6° |
| 2026-04-20 22:49 | -10.56487 | -76.77763 | 33185 ft | 471 kts | 6° |
| 2026-04-20 22:50 | -10.49983 | -76.76999 | 33184 ft | 472 kts | 6° |
| 2026-04-20 22:50 | -10.43432 | -76.76304 | 33169 ft | 474 kts | 6° |
| 2026-04-20 22:51 | -10.36901 | -76.75572 | 33170 ft | 472 kts | 6° |
| 2026-04-20 22:51 | -10.30362 | -76.74857 | 33172 ft | 471 kts | 6° |
| 2026-04-20 22:52 | -10.23841 | -76.74138 | 33160 ft | 475 kts | 6° |
| 2026-04-20 22:52 | -10.17266 | -76.73416 | 33160 ft | 476 kts | 6° |
| 2026-04-20 22:53 | -10.10688 | -76.72692 | 33133 ft | 474 kts | 6° |
| 2026-04-20 22:53 | -10.04125 | -76.71971 | 33139 ft | 473 kts | 6° |
| 2026-04-20 22:54 | -9.97595 | -76.71254 | 33126 ft | 474 kts | 6° |
| 2026-04-20 22:54 | -9.91022 | -76.70533 | 33129 ft | 475 kts | 6° |
| 2026-04-20 22:55 | -9.84466 | -76.69812 | 33119 ft | 474 kts | 6° |
| 2026-04-20 22:55 | -9.77906 | -76.69093 | 33123 ft | 472 kts | 6° |
| 2026-04-20 22:56 | -9.72453 | -76.68495 | 33121 ft | 474 kts | 6° |
| 2026-04-20 22:56 | -9.65895 | -76.67777 | 33111 ft | 475 kts | 6° |
| 2026-04-20 22:57 | -9.59340 | -76.67058 | 33116 ft | 474 kts | 6° |
| 2026-04-20 22:57 | -9.52768 | -76.66338 | 33107 ft | 473 kts | 7° |
| 2026-04-20 22:58 | -9.46202 | -76.65619 | 33106 ft | 474 kts | 7° |
| 2026-04-20 22:58 | -9.39647 | -76.64901 | 33086 ft | 475 kts | 7° |
| 2026-04-20 22:59 | -9.33123 | -76.64188 | 33066 ft | 474 kts | 7° |
| 2026-04-20 22:59 | -9.26560 | -76.63470 | 33046 ft | 473 kts | 7° |
| 2026-04-20 23:00 | -9.23295 | -76.63113 | 33040 ft | 462 kts | 7° |
| 2026-04-20 23:00 | -9.20171 | -76.62777 | 33016 ft | 449 kts | 7° |
| 2026-04-20 23:00 | -9.17006 | -76.62428 | 33032 ft | 464 kts | 7° |
| 2026-04-20 23:00 | -9.13764 | -76.62065 | 33048 ft | 473 kts | 7° |
| 2026-04-20 23:01 | -9.07214 | -76.61358 | 33023 ft | 473 kts | 7° |
| 2026-04-20 23:01 | -9.00696 | -76.60642 | 33024 ft | 472 kts | 7° |
| 2026-04-20 23:02 | -8.94257 | -76.59943 | 32998 ft | 465 kts | 7° |
| 2026-04-20 23:02 | -8.87804 | -76.59235 | 32994 ft | 467 kts | 7° |
| 2026-04-20 23:03 | -8.81359 | -76.58534 | 32976 ft | 467 kts | 7° |
| 2026-04-20 23:03 | -8.74885 | -76.57827 | 32982 ft | 466 kts | 7° |
| 2026-04-20 23:04 | -8.68425 | -76.57123 | 32961 ft | 467 kts | 7° |
| 2026-04-20 23:04 | -8.61968 | -76.56419 | 32958 ft | 467 kts | 7° |
| 2026-04-20 23:05 | -8.55542 | -76.55719 | 32958 ft | 467 kts | 7° |
| 2026-04-20 23:05 | -8.49072 | -76.55014 | 32938 ft | 466 kts | 7° |
| 2026-04-20 23:06 | -8.42596 | -76.54308 | 32937 ft | 470 kts | 7° |
| 2026-04-20 23:06 | -8.36097 | -76.53601 | 32910 ft | 470 kts | 7° |
| 2026-04-20 23:07 | -8.29586 | -76.52891 | 32913 ft | 470 kts | 6° |
| 2026-04-20 23:07 | -8.23088 | -76.52183 | 32898 ft | 469 kts | 7° |
| 2026-04-20 23:08 | -8.19834 | -76.51829 | 34281 ft | 470 kts | 6° |
| 2026-04-20 23:08 | -8.16605 | -76.51478 | 32821 ft | 476 kts | 6° |
| 2026-04-20 23:08 | -8.13338 | -76.51122 | 32942 ft | 467 kts | 7° |
| 2026-04-20 23:08 | -8.10091 | -76.50768 | 32943 ft | 469 kts | 7° |
| 2026-04-20 23:09 | -8.03588 | -76.50061 | 32934 ft | 467 kts | 7° |
| 2026-04-20 23:09 | -7.97165 | -76.49363 | 32932 ft | 468 kts | 7° |
| 2026-04-20 23:10 | -7.90693 | -76.48658 | 32929 ft | 467 kts | 7° |
| 2026-04-20 23:10 | -7.84220 | -76.47956 | 32929 ft | 467 kts | 7° |
| 2026-04-20 23:11 | -7.77752 | -76.47253 | 32919 ft | 467 kts | 7° |
| 2026-04-20 23:11 | -7.71277 | -76.46549 | 32919 ft | 467 kts | 7° |
| 2026-04-20 23:12 | -7.64813 | -76.45847 | 32909 ft | 467 kts | 7° |
| 2026-04-20 23:12 | -7.58350 | -76.45146 | 32909 ft | 467 kts | 7° |
| 2026-04-20 23:13 | -7.51929 | -76.44449 | 32903 ft | 467 kts | 7° |
| 2026-04-20 23:13 | -7.45461 | -76.43747 | 32903 ft | 467 kts | 7° |
| 2026-04-20 23:14 | -7.38986 | -76.43044 | 32909 ft | 467 kts | 7° |
| 2026-04-20 23:14 | -7.32511 | -76.42343 | 32899 ft | 467 kts | 7° |
| 2026-04-20 23:15 | -7.26077 | -76.41645 | 32891 ft | 467 kts | 7° |
| 2026-04-20 23:15 | -7.19596 | -76.40942 | 32887 ft | 468 kts | 7° |
| 2026-04-20 23:16 | -7.13131 | -76.40243 | 32884 ft | 467 kts | 7° |
| 2026-04-20 23:16 | -7.06662 | -76.39541 | 32882 ft | 467 kts | 7° |
| 2026-04-20 23:17 | -7.00188 | -76.38841 | 32878 ft | 468 kts | 7° |
| 2026-04-20 23:17 | -6.93729 | -76.38141 | 32880 ft | 469 kts | 7° |
| 2026-04-20 23:18 | -6.87236 | -76.37440 | 32875 ft | 469 kts | 7° |
| 2026-04-20 23:18 | -6.87101 | -76.37425 | 32875 ft | 469 kts | 7° |
| 2026-04-20 23:19 | -6.82731 | -76.36951 | 32861 ft | 469 kts | 7° |
| 2026-04-20 23:20 | -6.78472 | -76.36491 | 32845 ft | 469 kts | 7° |
| 2026-04-20 23:20 | -6.78450 | -76.36488 | 32845 ft | 469 kts | 7° |
| 2026-04-20 23:21 | -6.71950 | -76.35786 | 32827 ft | 469 kts | 7° |
| 2026-04-20 23:21 | -6.67002 | -76.35248 | 32809 ft | 468 kts | 7° |
| 2026-04-20 23:22 | -6.65109 | -76.34986 | 32809 ft | 468 kts | 10° |
| 2026-04-20 23:22 | -6.59825 | -76.33754 | 32791 ft | 466 kts | 18° |
| 2026-04-20 23:23 | -6.53564 | -76.32043 | 32792 ft | 467 kts | 13° |
| 2026-04-20 23:23 | -6.47222 | -76.30612 | 32792 ft | 467 kts | 15° |
| 2026-04-20 23:24 | -6.40936 | -76.28987 | 32807 ft | 467 kts | 14° |
| 2026-04-20 23:24 | -6.39734 | -76.28701 | 32815 ft | 467 kts | 14° |
| 2026-04-20 23:25 | -6.34317 | -76.27418 | 32823 ft | 467 kts | 15° |
| 2026-04-20 23:26 | -6.28012 | -76.25839 | 32869 ft | 466 kts | 14° |
| 2026-04-20 23:26 | -6.21709 | -76.24316 | 32867 ft | 468 kts | 14° |
| 2026-04-20 23:27 | -6.15340 | -76.22743 | 32864 ft | 468 kts | 14° |
| 2026-04-20 23:27 | -6.09049 | -76.21209 | 32859 ft | 468 kts | 14° |
| 2026-04-20 23:28 | -6.02719 | -76.19657 | 32844 ft | 468 kts | 14° |
| 2026-04-20 23:28 | -5.96389 | -76.18109 | 32845 ft | 468 kts | 14° |
| 2026-04-20 23:29 | -5.90062 | -76.16559 | 32850 ft | 468 kts | 14° |
| 2026-04-20 23:29 | -5.83735 | -76.15011 | 32850 ft | 468 kts | 14° |
| 2026-04-20 23:30 | -5.77402 | -76.13463 | 32845 ft | 468 kts | 14° |
| 2026-04-20 23:30 | -5.71103 | -76.11922 | 32852 ft | 468 kts | 14° |
| 2026-04-20 23:31 | -5.64771 | -76.10373 | 32847 ft | 468 kts | 14° |
| 2026-04-20 23:31 | -5.58430 | -76.08823 | 32855 ft | 468 kts | 14° |
| 2026-04-20 23:32 | -5.52085 | -76.07273 | 32852 ft | 469 kts | 14° |
| 2026-04-20 23:32 | -5.45742 | -76.05723 | 32858 ft | 469 kts | 14° |
| 2026-04-20 23:33 | -5.39392 | -76.04172 | 32858 ft | 469 kts | 14° |
| 2026-04-20 23:33 | -5.33084 | -76.02632 | 32858 ft | 469 kts | 14° |
| 2026-04-20 23:34 | -5.26739 | -76.01082 | 32850 ft | 469 kts | 14° |
| 2026-04-20 23:34 | -5.20396 | -75.99533 | 32853 ft | 469 kts | 14° |
| 2026-04-20 23:35 | -5.10859 | -75.97206 | 32856 ft | 470 kts | 14° |
| 2026-04-20 23:36 | -5.04498 | -75.95654 | 32861 ft | 470 kts | 14° |
| 2026-04-20 23:36 | -4.98188 | -75.94114 | 32861 ft | 470 kts | 14° |
| 2026-04-20 23:37 | -4.91828 | -75.92564 | 32862 ft | 470 kts | 14° |
| 2026-04-20 23:37 | -4.85481 | -75.91015 | 32859 ft | 470 kts | 14° |
| 2026-04-20 23:38 | -4.79120 | -75.89465 | 32853 ft | 470 kts | 15° |
| 2026-04-20 23:38 | -4.72753 | -75.87912 | 32861 ft | 471 kts | 15° |
| 2026-04-20 23:39 | -4.66386 | -75.86361 | 32861 ft | 471 kts | 15° |
| 2026-04-20 23:39 | -4.60058 | -75.84819 | 32862 ft | 471 kts | 15° |
| 2026-04-20 23:40 | -4.53679 | -75.83266 | 32863 ft | 470 kts | 15° |
| 2026-04-20 23:40 | -4.47305 | -75.81713 | 32859 ft | 470 kts | 15° |
| 2026-04-20 23:41 | -4.40977 | -75.80171 | 32862 ft | 469 kts | 15° |
| 2026-04-20 23:41 | -4.34633 | -75.78627 | 32865 ft | 469 kts | 15° |
| 2026-04-20 23:42 | -4.28278 | -75.77079 | 32862 ft | 470 kts | 15° |
| 2026-04-20 23:42 | -4.21917 | -75.75531 | 32864 ft | 470 kts | 15° |
| 2026-04-20 23:43 | -4.16636 | -75.74246 | 32867 ft | 470 kts | 15° |
| 2026-04-20 23:43 | -4.09243 | -75.72447 | 32870 ft | 470 kts | 15° |
| 2026-04-20 23:44 | -4.03913 | -75.71150 | 32863 ft | 470 kts | 15° |
| 2026-04-20 23:44 | -3.97598 | -75.69614 | 32873 ft | 470 kts | 15° |
| 2026-04-20 23:45 | -3.91242 | -75.68068 | 32874 ft | 470 kts | 15° |
| 2026-04-20 23:45 | -3.84890 | -75.66524 | 32872 ft | 470 kts | 15° |
| 2026-04-20 23:46 | -3.78533 | -75.64977 | 32881 ft | 470 kts | 15° |
| 2026-04-20 23:46 | -3.72177 | -75.63432 | 32876 ft | 470 kts | 15° |
| 2026-04-20 23:47 | -3.65827 | -75.61890 | 32870 ft | 468 kts | 15° |
| 2026-04-20 23:47 | -3.59545 | -75.60361 | 32869 ft | 468 kts | 15° |
| 2026-04-20 23:48 | -3.53213 | -75.58824 | 32869 ft | 468 kts | 15° |
| 2026-04-20 23:48 | -3.46884 | -75.57285 | 32867 ft | 468 kts | 15° |
| 2026-04-20 23:49 | -3.40547 | -75.55747 | 32865 ft | 468 kts | 15° |
| 2026-04-20 23:49 | -3.34210 | -75.54207 | 32873 ft | 468 kts | 15° |
| 2026-04-20 23:50 | -3.27923 | -75.52680 | 32868 ft | 468 kts | 15° |
| 2026-04-20 23:50 | -3.21597 | -75.51144 | 32871 ft | 468 kts | 15° |
| 2026-04-20 23:51 | -3.15268 | -75.49607 | 32873 ft | 468 kts | 15° |
| 2026-04-20 23:51 | -3.08935 | -75.48071 | 32872 ft | 468 kts | 15° |
| 2026-04-20 23:52 | -3.02597 | -75.46531 | 32871 ft | 468 kts | 15° |
| 2026-04-20 23:52 | -2.96268 | -75.44997 | 32874 ft | 468 kts | 15° |
| 2026-04-20 23:53 | -2.89917 | -75.43454 | 32875 ft | 468 kts | 15° |
| 2026-04-20 23:53 | -2.83613 | -75.41927 | 32874 ft | 468 kts | 15° |
| 2026-04-20 23:54 | -2.77273 | -75.40386 | 32872 ft | 468 kts | 15° |
| 2026-04-20 23:54 | -2.70942 | -75.38852 | 32877 ft | 468 kts | 15° |
| 2026-04-20 23:55 | -2.64615 | -75.37317 | 32875 ft | 468 kts | 15° |
| 2026-04-20 23:55 | -2.58274 | -75.35779 | 32881 ft | 468 kts | 15° |
| 2026-04-20 23:56 | -2.51953 | -75.34246 | 32872 ft | 467 kts | 16° |
| 2026-04-20 23:56 | -2.45627 | -75.32712 | 32876 ft | 467 kts | 16° |
| 2026-04-20 23:57 | -2.39303 | -75.31178 | 32873 ft | 467 kts | 15° |
| 2026-04-20 23:57 | -2.33012 | -75.29654 | 32874 ft | 468 kts | 15° |
| 2026-04-20 23:58 | -2.26682 | -75.28118 | 32877 ft | 468 kts | 16° |
| 2026-04-20 23:58 | -2.20357 | -75.26587 | 32876 ft | 468 kts | 15° |
| 2026-04-20 23:59 | -2.14015 | -75.25049 | 32874 ft | 468 kts | 15° |
| 2026-04-20 23:59 | -2.07688 | -75.23517 | 32877 ft | 468 kts | 15° |
| 2026-04-21 00:00 | -2.01348 | -75.21979 | 32874 ft | 468 kts | 15° |
| 2026-04-21 00:00 | -1.95046 | -75.20454 | 32872 ft | 468 kts | 15° |
| 2026-04-21 00:01 | -1.88716 | -75.18919 | 32872 ft | 468 kts | 15° |
| 2026-04-21 00:01 | -1.82386 | -75.17386 | 32869 ft | 468 kts | 15° |
| 2026-04-21 00:02 | -1.76056 | -75.15852 | 32869 ft | 468 kts | 15° |
| 2026-04-21 00:02 | -1.69723 | -75.14319 | 32872 ft | 468 kts | 15° |
| 2026-04-21 00:03 | -1.63432 | -75.12795 | 32873 ft | 468 kts | 15° |
| 2026-04-21 00:03 | -1.57099 | -75.11260 | 32871 ft | 468 kts | 15° |
| 2026-04-21 00:04 | -1.50772 | -75.09728 | 32874 ft | 468 kts | 15° |
| 2026-04-21 00:04 | -1.44441 | -75.08196 | 32867 ft | 468 kts | 15° |
| 2026-04-21 00:05 | -1.38107 | -75.06662 | 32876 ft | 468 kts | 15° |
| 2026-04-21 00:05 | -1.31772 | -75.05128 | 32869 ft | 469 kts | 15° |
| 2026-04-21 00:06 | -1.25426 | -75.03591 | 32865 ft | 469 kts | 15° |
| 2026-04-21 00:06 | -1.19086 | -75.02056 | 32867 ft | 469 kts | 15° |
| 2026-04-21 00:07 | -1.12740 | -75.00520 | 32860 ft | 469 kts | 15° |
| 2026-04-21 00:07 | -1.06394 | -74.98984 | 32861 ft | 470 kts | 15° |
| 2026-04-21 00:08 | -1.00072 | -74.97454 | 32870 ft | 470 kts | 15° |
| 2026-04-21 00:08 | -0.93709 | -74.95913 | 32867 ft | 470 kts | 15° |
| 2026-04-21 00:09 | -0.87339 | -74.94371 | 32866 ft | 470 kts | 15° |
| 2026-04-21 00:09 | -0.80973 | -74.92830 | 32866 ft | 470 kts | 15° |
| 2026-04-21 00:10 | -0.74603 | -74.91288 | 32868 ft | 470 kts | 15° |
| 2026-04-21 00:10 | -0.68277 | -74.89758 | 32868 ft | 471 kts | 15° |
| 2026-04-21 00:11 | -0.61899 | -74.88214 | 32866 ft | 471 kts | 15° |
| 2026-04-21 00:11 | -0.55525 | -74.86671 | 32868 ft | 471 kts | 15° |
| 2026-04-21 00:12 | -0.49154 | -74.85129 | 32870 ft | 471 kts | 15° |
| 2026-04-21 00:12 | -0.42774 | -74.83585 | 32871 ft | 471 kts | 15° |
| 2026-04-21 00:13 | -0.36396 | -74.82042 | 32869 ft | 471 kts | 15° |
| 2026-04-21 00:13 | -0.30065 | -74.80510 | 32869 ft | 471 kts | 15° |
| 2026-04-21 00:14 | -0.23690 | -74.78967 | 32868 ft | 471 kts | 15° |
| 2026-04-21 00:14 | -0.17275 | -74.77635 | 32860 ft | 473 kts | 5° |
| 2026-04-21 00:15 | -0.10680 | -74.77642 | 32877 ft | 475 kts | 358° |
| 2026-04-21 00:15 | -0.04068 | -74.77883 | 32880 ft | 474 kts | 2° |
| 2026-04-21 00:16 | 0.02534 | -74.77945 | 32881 ft | 474 kts | 360° |
| 2026-04-21 00:16 | 0.09136 | -74.78131 | 32882 ft | 474 kts | 1° |
| 2026-04-21 00:17 | 0.15740 | -74.78235 | 32882 ft | 474 kts | 0° |
| 2026-04-21 00:17 | 0.22302 | -74.78388 | 32882 ft | 474 kts | 0° |
| 2026-04-21 00:18 | 0.28910 | -74.78514 | 32884 ft | 474 kts | 0° |
| 2026-04-21 00:18 | 0.35531 | -74.78654 | 32884 ft | 474 kts | 0° |
| 2026-04-21 00:19 | 0.42094 | -74.78788 | 32885 ft | 475 kts | 0° |
| 2026-04-21 00:19 | 0.48700 | -74.78925 | 32886 ft | 475 kts | 0° |
| 2026-04-21 00:20 | 0.55309 | -74.79060 | 32884 ft | 475 kts | 0° |
| 2026-04-21 00:20 | 0.61910 | -74.79195 | 32884 ft | 475 kts | 0° |
| 2026-04-21 00:21 | 0.68514 | -74.79331 | 32884 ft | 475 kts | 0° |
| 2026-04-21 00:21 | 0.75121 | -74.79468 | 32885 ft | 475 kts | 0° |
| 2026-04-21 00:22 | 0.81736 | -74.79603 | 32888 ft | 475 kts | 0° |
| 2026-04-21 00:22 | 0.88349 | -74.79739 | 32887 ft | 475 kts | 0° |
| 2026-04-21 00:23 | 0.94966 | -74.79876 | 32896 ft | 475 kts | 0° |
| 2026-04-21 00:23 | 1.01545 | -74.80011 | 32898 ft | 475 kts | 0° |
| 2026-04-21 00:24 | 1.08170 | -74.80146 | 32901 ft | 475 kts | 0° |
| 2026-04-21 00:24 | 1.14749 | -74.80282 | 32897 ft | 476 kts | 0° |
| 2026-04-21 00:25 | 1.21379 | -74.80419 | 32907 ft | 476 kts | 0° |
| 2026-04-21 00:25 | 1.28014 | -74.80554 | 32908 ft | 476 kts | 0° |
| 2026-04-21 00:26 | 1.34655 | -74.80691 | 32920 ft | 476 kts | 0° |
| 2026-04-21 00:26 | 1.41243 | -74.80827 | 32920 ft | 476 kts | 0° |
| 2026-04-21 00:27 | 1.47869 | -74.80963 | 32930 ft | 476 kts | 0° |
| 2026-04-21 00:27 | 1.54515 | -74.81099 | 32930 ft | 477 kts | 0° |
| 2026-04-21 00:28 | 1.61159 | -74.81237 | 32925 ft | 477 kts | 0° |
| 2026-04-21 00:28 | 1.67808 | -74.81374 | 32932 ft | 477 kts | 0° |
| 2026-04-21 00:29 | 1.74446 | -74.81510 | 32937 ft | 477 kts | 0° |
| 2026-04-21 00:29 | 1.79977 | -74.81623 | 32946 ft | 477 kts | 0° |
| 2026-04-21 00:30 | 1.86621 | -74.81760 | 32942 ft | 479 kts | 0° |
| 2026-04-21 00:30 | 1.94371 | -74.81920 | 32955 ft | 479 kts | 0° |
| 2026-04-21 00:31 | 1.99917 | -74.82034 | 32959 ft | 479 kts | 0° |
| 2026-04-21 00:31 | 2.06581 | -74.82171 | 32981 ft | 478 kts | 0° |
| 2026-04-21 00:32 | 2.13250 | -74.82309 | 32981 ft | 478 kts | 0° |
| 2026-04-21 00:32 | 2.19876 | -74.82445 | 32983 ft | 479 kts | 0° |
| 2026-04-21 00:33 | 2.26568 | -74.82582 | 33013 ft | 482 kts | 0° |
| 2026-04-21 00:33 | 2.33273 | -74.82721 | 33014 ft | 482 kts | 0° |
| 2026-04-21 00:34 | 2.39980 | -74.82859 | 33058 ft | 482 kts | 0° |
| 2026-04-21 00:34 | 2.46678 | -74.82996 | 33055 ft | 482 kts | 0° |
| 2026-04-21 00:35 | 2.53381 | -74.83135 | 33084 ft | 482 kts | 0° |
| 2026-04-21 00:35 | 2.60087 | -74.83273 | 33089 ft | 483 kts | 0° |
| 2026-04-21 00:36 | 2.66816 | -74.83411 | 33114 ft | 484 kts | 0° |
| 2026-04-21 00:36 | 2.73546 | -74.83550 | 33115 ft | 483 kts | 0° |
| 2026-04-21 00:37 | 2.80227 | -74.83687 | 33120 ft | 483 kts | 0° |
| 2026-04-21 00:37 | 2.86963 | -74.83827 | 33126 ft | 483 kts | 0° |
| 2026-04-21 00:38 | 2.93691 | -74.83965 | 33123 ft | 483 kts | 0° |
| 2026-04-21 00:38 | 3.00442 | -74.84105 | 33127 ft | 485 kts | 0° |
| 2026-04-21 00:39 | 3.07192 | -74.84243 | 33123 ft | 485 kts | 0° |
| 2026-04-21 00:39 | 3.13945 | -74.84383 | 33121 ft | 485 kts | 0° |
| 2026-04-21 00:40 | 3.20692 | -74.84521 | 33123 ft | 485 kts | 0° |
| 2026-04-21 00:40 | 3.27444 | -74.84661 | 33129 ft | 485 kts | 0° |
| 2026-04-21 00:41 | 3.34173 | -74.84800 | 33127 ft | 485 kts | 0° |
| 2026-04-21 00:41 | 3.40921 | -74.84938 | 33134 ft | 485 kts | 0° |
| 2026-04-21 00:42 | 3.47673 | -74.85078 | 33130 ft | 485 kts | 0° |
| 2026-04-21 00:42 | 3.54428 | -74.85218 | 33134 ft | 485 kts | 0° |
| 2026-04-21 00:43 | 3.61173 | -74.85357 | 33132 ft | 485 kts | 0° |
| 2026-04-21 00:43 | 3.67888 | -74.85495 | 33135 ft | 485 kts | 0° |
| 2026-04-21 00:44 | 3.74670 | -74.85634 | 33132 ft | 488 kts | 360° |
| 2026-04-21 00:44 | 3.81467 | -74.85775 | 33131 ft | 488 kts | 360° |
| 2026-04-21 00:45 | 3.91657 | -74.85986 | 33130 ft | 488 kts | 360° |
| 2026-04-21 00:45 | 3.98400 | -74.86125 | 33130 ft | 488 kts | 360° |
| 2026-04-21 00:46 | 4.05206 | -74.86265 | 32704 ft | 489 kts | 360° |
| 2026-04-21 00:46 | 4.08587 | -74.86334 | 32138 ft | 484 kts | 359° |
| 2026-04-21 00:46 | 4.11942 | -74.86406 | 31554 ft | 478 kts | 359° |
| 2026-04-21 00:47 | 4.15253 | -74.86477 | 30975 ft | 473 kts | 359° |
| 2026-04-21 00:47 | 4.18512 | -74.86780 | 30344 ft | 469 kts | 348° |
| 2026-04-21 00:47 | 4.21622 | -74.87686 | 29662 ft | 463 kts | 339° |
| 2026-04-21 00:47 | 4.24573 | -74.88907 | 29023 ft | 457 kts | 335° |
| 2026-04-21 00:48 | 4.27419 | -74.90313 | 28809 ft | 454 kts | 332° |
| 2026-04-21 00:48 | 4.30252 | -74.91725 | 28846 ft | 456 kts | 334° |
| 2026-04-21 00:48 | 4.36075 | -74.94311 | 28895 ft | 458 kts | 335° |
| 2026-04-21 00:49 | 4.38978 | -74.95669 | 28544 ft | 457 kts | 334° |
| 2026-04-21 00:49 | 4.41832 | -74.97034 | 28214 ft | 449 kts | 334° |
| 2026-04-21 00:49 | 4.44595 | -74.98311 | 27848 ft | 426 kts | 335° |
| 2026-04-21 00:49 | 4.47246 | -74.99517 | 27469 ft | 412 kts | 335° |
| 2026-04-21 00:50 | 4.49837 | -75.00712 | 27028 ft | 406 kts | 334° |
| 2026-04-21 00:50 | 4.52388 | -75.01901 | 26656 ft | 403 kts | 334° |
| 2026-04-21 00:50 | 4.54892 | -75.03061 | 26306 ft | 400 kts | 334° |
| 2026-04-21 00:50 | 4.57409 | -75.04223 | 25961 ft | 397 kts | 334° |
| 2026-04-21 00:51 | 4.59913 | -75.05383 | 25630 ft | 394 kts | 334° |
| 2026-04-21 00:51 | 4.62405 | -75.06537 | 25314 ft | 392 kts | 334° |
| 2026-04-21 00:51 | 4.64870 | -75.07678 | 25002 ft | 389 kts | 334° |
| 2026-04-21 00:51 | 4.67310 | -75.08841 | 24686 ft | 387 kts | 333° |
| 2026-04-21 00:52 | 4.69729 | -75.10000 | 24382 ft | 384 kts | 334° |
| 2026-04-21 00:52 | 4.72218 | -75.10938 | 24072 ft | 382 kts | 345° |
| 2026-04-21 00:52 | 4.74713 | -75.11828 | 23782 ft | 379 kts | 333° |
| 2026-04-21 00:52 | 4.76996 | -75.13066 | 23448 ft | 376 kts | 328° |
| 2026-04-21 00:53 | 4.79257 | -75.14375 | 23082 ft | 374 kts | 330° |
| 2026-04-21 00:53 | 4.81612 | -75.15538 | 22701 ft | 371 kts | 336° |
| 2026-04-21 00:53 | 4.83955 | -75.16515 | 22338 ft | 369 kts | 336° |
| 2026-04-21 00:53 | 4.86296 | -75.17553 | 21981 ft | 366 kts | 334° |
| 2026-04-21 00:54 | 4.88583 | -75.18661 | 21603 ft | 364 kts | 333° |
| 2026-04-21 00:54 | 4.90863 | -75.19744 | 21241 ft | 362 kts | 334° |
| 2026-04-21 00:54 | 4.93152 | -75.20783 | 20912 ft | 359 kts | 335° |
| 2026-04-21 00:54 | 4.95423 | -75.21822 | 20578 ft | 357 kts | 334° |
| 2026-04-21 00:55 | 4.97668 | -75.22872 | 20236 ft | 355 kts | 334° |
| 2026-04-21 00:55 | 4.99903 | -75.23915 | 19896 ft | 353 kts | 334° |
| 2026-04-21 00:55 | 5.02122 | -75.24941 | 19549 ft | 350 kts | 334° |
| 2026-04-21 00:55 | 5.04332 | -75.25962 | 19212 ft | 348 kts | 334° |
| 2026-04-21 00:56 | 5.06496 | -75.26966 | 18889 ft | 346 kts | 335° |
| 2026-04-21 00:56 | 5.08699 | -75.27990 | 18553 ft | 344 kts | 335° |
| 2026-04-21 00:56 | 5.10836 | -75.28981 | 18176 ft | 341 kts | 335° |
| 2026-04-21 00:56 | 5.12987 | -75.29977 | 17797 ft | 340 kts | 335° |
| 2026-04-21 00:57 | 5.15127 | -75.30969 | 17423 ft | 337 kts | 335° |
| 2026-04-21 00:57 | 5.17249 | -75.31955 | 17041 ft | 335 kts | 335° |
| 2026-04-21 00:57 | 5.19367 | -75.32937 | 16670 ft | 333 kts | 335° |
| 2026-04-21 00:57 | 5.21463 | -75.33910 | 16305 ft | 331 kts | 335° |
| 2026-04-21 00:58 | 5.23550 | -75.34877 | 15941 ft | 329 kts | 335° |
| 2026-04-21 00:58 | 5.25623 | -75.35839 | 15565 ft | 328 kts | 335° |
| 2026-04-21 00:58 | 5.27680 | -75.36795 | 15213 ft | 325 kts | 335° |
| 2026-04-21 00:58 | 5.29727 | -75.37744 | 14867 ft | 322 kts | 335° |
| 2026-04-21 00:59 | 5.31733 | -75.38674 | 14509 ft | 321 kts | 335° |
| 2026-04-21 00:59 | 5.33781 | -75.39545 | 14175 ft | 319 kts | 344° |
| 2026-04-21 00:59 | 5.35957 | -75.39898 | 14174 ft | 316 kts | 354° |
| 2026-04-21 00:59 | 5.38084 | -75.39993 | 14155 ft | 294 kts | 359° |
| 2026-04-21 01:00 | 5.40109 | -75.39991 | 14037 ft | 289 kts | 359° |
| 2026-04-21 01:00 | 5.42115 | -75.40039 | 13862 ft | 287 kts | 357° |
| 2026-04-21 01:00 | 5.44105 | -75.40121 | 13699 ft | 285 kts | 357° |
| 2026-04-21 01:00 | 5.46085 | -75.40189 | 13520 ft | 285 kts | 358° |
| 2026-04-21 01:01 | 5.48071 | -75.40247 | 13365 ft | 284 kts | 358° |
| 2026-04-21 01:01 | 5.50024 | -75.40307 | 13202 ft | 279 kts | 357° |
| 2026-04-21 01:01 | 5.51934 | -75.40368 | 13047 ft | 277 kts | 357° |
| 2026-04-21 01:01 | 5.53865 | -75.40442 | 12888 ft | 278 kts | 356° |
| 2026-04-21 01:02 | 5.55796 | -75.40548 | 12738 ft | 277 kts | 356° |
| 2026-04-21 01:02 | 5.57720 | -75.40652 | 12593 ft | 276 kts | 356° |
| 2026-04-21 01:02 | 5.59645 | -75.40757 | 12444 ft | 276 kts | 356° |
| 2026-04-21 01:02 | 5.61561 | -75.40860 | 12278 ft | 275 kts | 356° |
| 2026-04-21 01:03 | 5.63401 | -75.40960 | 12117 ft | 261 kts | 356° |
| 2026-04-21 01:03 | 5.65171 | -75.41054 | 11932 ft | 250 kts | 356° |
| 2026-04-21 01:03 | 5.66889 | -75.41145 | 11737 ft | 246 kts | 356° |
| 2026-04-21 01:03 | 5.68592 | -75.41234 | 11496 ft | 244 kts | 356° |
| 2026-04-21 01:04 | 5.70286 | -75.41324 | 11254 ft | 243 kts | 356° |
| 2026-04-21 01:04 | 5.71972 | -75.41411 | 11018 ft | 242 kts | 356° |
| 2026-04-21 01:04 | 5.73649 | -75.41499 | 10913 ft | 239 kts | 356° |
| 2026-04-21 01:04 | 5.75303 | -75.41585 | 10892 ft | 238 kts | 356° |
| 2026-04-21 01:05 | 5.76958 | -75.41669 | 10899 ft | 239 kts | 356° |
| 2026-04-21 01:05 | 5.78618 | -75.41651 | 10902 ft | 238 kts | 1° |
| 2026-04-21 01:05 | 5.80261 | -75.41825 | 10904 ft | 238 kts | 342° |
| 2026-04-21 01:05 | 5.81804 | -75.42431 | 10929 ft | 238 kts | 336° |
| 2026-04-21 01:06 | 5.83406 | -75.42624 | 10921 ft | 240 kts | 13° |
| 2026-04-21 01:06 | 5.85008 | -75.42153 | 10955 ft | 234 kts | 13° |
| 2026-04-21 01:06 | 5.86593 | -75.41992 | 10941 ft | 227 kts | 355° |
| 2026-04-21 01:06 | 5.88170 | -75.42124 | 10945 ft | 228 kts | 354° |
| 2026-04-21 01:07 | 5.89746 | -75.42170 | 10990 ft | 226 kts | 1° |
| 2026-04-21 01:07 | 5.91273 | -75.42130 | 10986 ft | 212 kts | 359° |
| 2026-04-21 01:07 | 5.92730 | -75.42158 | 11008 ft | 206 kts | 358° |
| 2026-04-21 01:07 | 5.94144 | -75.42170 | 10881 ft | 190 kts | 360° |
| 2026-04-21 01:08 | 5.95431 | -75.42168 | 10637 ft | 178 kts | 358° |
| 2026-04-21 01:08 | 5.96627 | -75.42191 | 10434 ft | 168 kts | 359° |
| 2026-04-21 01:08 | 5.97804 | -75.42180 | 10243 ft | 169 kts | 359° |
| 2026-04-21 01:08 | 5.98982 | -75.42206 | 10060 ft | 170 kts | 358° |
| 2026-04-21 01:09 | 6.00145 | -75.42203 | 9834 ft | 169 kts | 360° |
| 2026-04-21 01:09 | 6.01320 | -75.42211 | 9602 ft | 168 kts | 357° |
| 2026-04-21 01:09 | 6.02485 | -75.42229 | 9402 ft | 165 kts | 0° |
| 2026-04-21 01:09 | 6.03635 | -75.42218 | 9192 ft | 164 kts | 358° |
| 2026-04-21 01:10 | 6.04781 | -75.42245 | 8985 ft | 164 kts | 358° |
| 2026-04-21 01:10 | 6.05916 | -75.42236 | 8779 ft | 163 kts | 360° |
| 2026-04-21 01:10 | 6.07052 | -75.42255 | 8580 ft | 163 kts | 358° |
| 2026-04-21 01:10 | 6.08189 | -75.42259 | 8373 ft | 163 kts | 1° |
| 2026-04-21 01:11 | 6.09316 | -75.42232 | 8160 ft | 162 kts | 1° |
| 2026-04-21 01:11 | 6.10490 | -75.42217 | 7944 ft | 172 kts | 359° |
| 2026-04-21 01:11 | 6.11691 | -75.42241 | 7725 ft | 174 kts | 358° |
| 2026-04-21 01:11 | 6.12901 | -75.42280 | 7437 ft | 170 kts | 358° |
| 2026-04-21 01:12 | 6.14102 | -75.42296 | 7149 ft | 175 kts | 360° |
| 2026-04-21 01:12 | 6.15269 | -75.42295 | 7001 ft | 157 kts | 0° |
| 2026-04-21 01:12 | 6.16243 | -75.42310 | 6983 ft | 125 kts | 359° |
| 2026-04-21 01:12 | 6.16975 | -75.42318 | 7011 ft | 84 kts | 360° |
| 2026-04-21 01:13 | 6.17420 | -75.42319 | 7028 ft | 41 kts | 360° |
| 2026-04-21 01:13 | 6.17557 | -75.42346 | 7031 ft | 10 kts | 297° |
| 2026-04-21 01:13 | 6.17562 | -75.42369 | 7030 ft | 0 kts | 272° |
| 2026-04-21 01:13 | 6.17562 | -75.42373 | 7031 ft | 0 kts | 272° |
| 2026-04-21 01:15 | 6.17562 | -75.42388 | 7029 ft | 5 kts | 272° |
| 2026-04-21 01:15 | 6.17564 | -75.42430 | 7028 ft | 7 kts | 272° |
| 2026-04-21 01:15 | 6.17556 | -75.42481 | 7026 ft | 8 kts | 244° |
| 2026-04-21 01:16 | 6.17511 | -75.42525 | 7022 ft | 10 kts | 216° |
| 2026-04-21 01:16 | 6.17451 | -75.42570 | 7022 ft | 11 kts | 217° |
| 2026-04-21 01:16 | 6.17399 | -75.42607 | 7023 ft | 8 kts | 211° |
| 2026-04-21 01:16 | 6.17357 | -75.42641 | 7021 ft | 8 kts | 242° |
| 2026-04-21 01:17 | 6.17359 | -75.42694 | 7023 ft | 8 kts | 288° |
| 2026-04-21 01:17 | 6.17348 | -75.42731 | 7023 ft | 5 kts | 220° |
| 2026-04-21 01:17 | 6.17323 | -75.42750 | 7024 ft | 4 kts | 214° |
| 2026-04-21 01:17 | 6.17306 | -75.42762 | 7021 ft | 2 kts | 211° |
| 2026-04-21 01:18 | 6.17299 | -75.42766 | 7024 ft | 0 kts | 211° |